sensor_id;sensor_type;location;lat;lon;timestamp;pressure;altitude;pressure_sealevel;temperature;humidity
19112;BME280;9688;51.906;8.376;2023-04-03T00:01:53;102196.38;;;4.62;75.48
19112;BME280;9688;51.906;8.376;2023-04-03T00:04:39;102188.47;;;4.59;75.94
19112;BME280;9688;51.906;8.376;2023-04-03T00:07:25;102186.69;;;4.57;76.57
19112;BME280;9688;51.906;8.376;2023-04-03T00:10:14;102189.28;;;4.54;75.92
19112;BME280;9688;51.906;8.376;2023-04-03T00:12:59;102182.25;;;4.50;76.64
19112;BME280;9688;51.906;8.376;2023-04-03T00:15:45;102194.41;;;4.44;77.35
19112;BME280;9688;51.906;8.376;2023-04-03T00:18:31;102197.00;;;4.43;76.88
19112;BME280;9688;51.906;8.376;2023-04-03T00:21:16;102188.22;;;4.36;76.48
19112;BME280;9688;51.906;8.376;2023-04-03T00:24:03;102195.16;;;4.33;76.41
19112;BME280;9688;51.906;8.376;2023-04-03T00:26:50;102200.31;;;4.28;77.39
19112;BME280;9688;51.906;8.376;2023-04-03T00:29:35;102208.13;;;4.25;77.02
19112;BME280;9688;51.906;8.376;2023-04-03T00:32:20;102198.47;;;4.19;76.90
19112;BME280;9688;51.906;8.376;2023-04-03T00:35:06;102194.88;;;4.13;76.94
19112;BME280;9688;51.906;8.376;2023-04-03T00:37:53;102206.13;;;4.07;76.87
19112;BME280;9688;51.906;8.376;2023-04-03T00:40:42;102206.03;;;4.01;77.15
19112;BME280;9688;51.906;8.376;2023-04-03T00:43:29;102206.00;;;3.98;77.96
19112;BME280;9688;51.906;8.376;2023-04-03T00:46:15;102212.06;;;3.94;78.35
19112;BME280;9688;51.906;8.376;2023-04-03T00:49:01;102209.41;;;3.91;78.40
19112;BME280;9688;51.906;8.376;2023-04-03T00:51:47;102211.09;;;3.87;78.14
19112;BME280;9688;51.906;8.376;2023-04-03T00:54:35;102216.31;;;3.86;77.69
19112;BME280;9688;51.906;8.376;2023-04-03T00:57:22;102223.19;;;3.80;77.69
19112;BME280;9688;51.906;8.376;2023-04-03T01:00:13;102219.63;;;3.75;78.68
19112;BME280;9688;51.906;8.376;2023-04-03T01:03:03;102218.72;;;3.73;78.13
19112;BME280;9688;51.906;8.376;2023-04-03T01:05:49;102222.16;;;3.71;78.97
19112;BME280;9688;51.906;8.376;2023-04-03T01:08:35;102212.53;;;3.68;78.25
19112;BME280;9688;51.906;8.376;2023-04-03T01:11:20;102209.03;;;3.66;78.54
19112;BME280;9688;51.906;8.376;2023-04-03T01:14:06;102209.03;;;3.66;78.38
19112;BME280;9688;51.906;8.376;2023-04-03T01:16:54;102209.00;;;3.63;78.50
19112;BME280;9688;51.906;8.376;2023-04-03T01:19:45;102207.19;;;3.61;79.29
19112;BME280;9688;51.906;8.376;2023-04-03T01:22:42;102210.69;;;3.61;78.55
19112;BME280;9688;51.906;8.376;2023-04-03T01:25:33;102204.53;;;3.57;78.90
19112;BME280;9688;51.906;8.376;2023-04-03T01:28:23;102212.31;;;3.54;78.96
19112;BME280;9688;51.906;8.376;2023-04-03T01:31:15;102216.63;;;3.51;79.37
19112;BME280;9688;51.906;8.376;2023-04-03T01:34:06;102215.69;;;3.47;79.69
19112;BME280;9688;51.906;8.376;2023-04-03T01:36:51;102215.66;;;3.44;79.84
19112;BME280;9688;51.906;8.376;2023-04-03T01:39:37;102224.31;;;3.43;79.82
19112;BME280;9688;51.906;8.376;2023-04-03T01:42:23;102226.03;;;3.40;79.35
19112;BME280;9688;51.906;8.376;2023-04-03T01:45:09;102223.34;;;3.37;79.53
19112;BME280;9688;51.906;8.376;2023-04-03T01:47:55;102223.31;;;3.33;80.18
19112;BME280;9688;51.906;8.376;2023-04-03T01:50:42;102225.88;;;3.30;79.55
19112;BME280;9688;51.906;8.376;2023-04-03T01:53:27;102230.13;;;3.27;80.68
19112;BME280;9688;51.906;8.376;2023-04-03T01:56:13;102227.53;;;3.25;79.88
19112;BME280;9688;51.906;8.376;2023-04-03T01:59:00;102230.09;;;3.24;80.45
19112;BME280;9688;51.906;8.376;2023-04-03T02:01:45;102224.81;;;3.21;80.00
19112;BME280;9688;51.906;8.376;2023-04-03T02:04:31;102232.59;;;3.18;80.53
19112;BME280;9688;51.906;8.376;2023-04-03T02:07:18;102228.16;;;3.12;80.84
19112;BME280;9688;51.906;8.376;2023-04-03T02:10:04;102234.19;;;3.08;80.87
19112;BME280;9688;51.906;8.376;2023-04-03T02:12:50;102230.59;;;3.04;80.59
19112;BME280;9688;51.906;8.376;2023-04-03T02:15:39;102234.03;;;3.02;80.13
19112;BME280;9688;51.906;8.376;2023-04-03T02:18:24;102230.59;;;3.03;80.63
19112;BME280;9688;51.906;8.376;2023-04-03T02:21:10;102230.53;;;3.00;80.67
19112;BME280;9688;51.906;8.376;2023-04-03T02:23:57;102230.50;;;2.97;81.00
19112;BME280;9688;51.906;8.376;2023-04-03T02:26:43;102234.78;;;2.95;81.28
19112;BME280;9688;51.906;8.376;2023-04-03T02:29:28;102228.59;;;2.89;80.84
19112;BME280;9688;51.906;8.376;2023-04-03T02:32:14;102235.47;;;2.84;80.58
19112;BME280;9688;51.906;8.376;2023-04-03T02:34:59;102226.69;;;2.81;80.98
19112;BME280;9688;51.906;8.376;2023-04-03T02:37:45;102229.22;;;2.76;81.48
19112;BME280;9688;51.906;8.376;2023-04-03T02:40:32;102234.34;;;2.72;81.42
19112;BME280;9688;51.906;8.376;2023-04-03T02:43:18;102241.22;;;2.66;81.29
19112;BME280;9688;51.906;8.376;2023-04-03T02:46:04;102247.19;;;2.62;81.08
19112;BME280;9688;51.906;8.376;2023-04-03T02:48:50;102242.81;;;2.60;81.53
19112;BME280;9688;51.906;8.376;2023-04-03T02:51:36;102238.38;;;2.56;81.78
19112;BME280;9688;51.906;8.376;2023-04-03T02:54:22;102237.47;;;2.54;81.74
19112;BME280;9688;51.906;8.376;2023-04-03T02:57:13;102239.16;;;2.52;81.99
19112;BME280;9688;51.906;8.376;2023-04-03T02:59:58;102239.97;;;2.49;81.73
19112;BME280;9688;51.906;8.376;2023-04-03T03:02:44;102234.72;;;2.48;81.69
19112;BME280;9688;51.906;8.376;2023-04-03T03:05:30;102241.69;;;2.49;82.16
19112;BME280;9688;51.906;8.376;2023-04-03T03:08:16;102248.59;;;2.46;81.83
19112;BME280;9688;51.906;8.376;2023-04-03T03:11:04;102239.88;;;2.44;82.34
19112;BME280;9688;51.906;8.376;2023-04-03T03:13:51;102241.53;;;2.41;82.13
19112;BME280;9688;51.906;8.376;2023-04-03T03:16:37;102238.03;;;2.40;82.29
19112;BME280;9688;51.906;8.376;2023-04-03T03:19:22;102243.25;;;2.39;82.29
19112;BME280;9688;51.906;8.376;2023-04-03T03:22:08;102244.88;;;2.35;81.87
19112;BME280;9688;51.906;8.376;2023-04-03T03:24:54;102240.47;;;2.31;82.73
19112;BME280;9688;51.906;8.376;2023-04-03T03:27:40;102238.63;;;2.27;82.28
19112;BME280;9688;51.906;8.376;2023-04-03T03:30:27;102242.03;;;2.23;82.83
19112;BME280;9688;51.906;8.376;2023-04-03T03:33:13;102243.75;;;2.22;82.47
19112;BME280;9688;51.906;8.376;2023-04-03T03:35:59;102240.16;;;2.17;82.36
19112;BME280;9688;51.906;8.376;2023-04-03T03:38:45;102243.59;;;2.15;82.53
19112;BME280;9688;51.906;8.376;2023-04-03T03:41:30;102247.06;;;2.14;83.15
19112;BME280;9688;51.906;8.376;2023-04-03T03:44:16;102260.91;;;2.13;82.45
19112;BME280;9688;51.906;8.376;2023-04-03T03:47:02;102245.19;;;2.10;82.50
19112;BME280;9688;51.906;8.376;2023-04-03T03:49:50;102258.25;;;2.10;82.76
19112;BME280;9688;51.906;8.376;2023-04-03T03:52:36;102253.88;;;2.09;82.66
19112;BME280;9688;51.906;8.376;2023-04-03T03:55:23;102251.22;;;2.06;82.92
19112;BME280;9688;51.906;8.376;2023-04-03T03:58:09;102258.09;;;2.04;82.78
19112;BME280;9688;51.906;8.376;2023-04-03T04:00:55;102258.91;;;2.01;82.56
19112;BME280;9688;51.906;8.376;2023-04-03T04:03:42;102260.66;;;2.00;82.71
19112;BME280;9688;51.906;8.376;2023-04-03T04:06:28;102261.41;;;1.96;82.72
19112;BME280;9688;51.906;8.376;2023-04-03T04:09:13;102263.94;;;1.93;82.80
19112;BME280;9688;51.906;8.376;2023-04-03T04:11:58;102272.63;;;1.92;82.99
19112;BME280;9688;51.906;8.376;2023-04-03T04:14:44;102270.81;;;1.90;82.94
19112;BME280;9688;51.906;8.376;2023-04-03T04:17:31;102272.50;;;1.88;82.84
19112;BME280;9688;51.906;8.376;2023-04-03T04:20:18;102266.34;;;1.84;83.19
19112;BME280;9688;51.906;8.376;2023-04-03T04:23:04;102273.25;;;1.82;82.96
19112;BME280;9688;51.906;8.376;2023-04-03T04:25:51;102273.22;;;1.81;83.35
19112;BME280;9688;51.906;8.376;2023-04-03T04:28:36;102273.16;;;1.77;83.27
19112;BME280;9688;51.906;8.376;2023-04-03T04:31:22;102276.50;;;1.72;83.31
19112;BME280;9688;51.906;8.376;2023-04-03T04:34:08;102272.88;;;1.67;83.59
19112;BME280;9688;51.906;8.376;2023-04-03T04:36:55;102271.91;;;1.63;83.85
19112;BME280;9688;51.906;8.376;2023-04-03T04:39:41;102280.53;;;1.61;83.92
19112;BME280;9688;51.906;8.376;2023-04-03T04:42:30;102280.53;;;1.61;83.66
19112;BME280;9688;51.906;8.376;2023-04-03T04:45:16;102281.34;;;1.58;84.15
19112;BME280;9688;51.906;8.376;2023-04-03T04:48:01;102288.25;;;1.56;83.95
19112;BME280;9688;51.906;8.376;2023-04-03T04:50:47;102290.78;;;1.53;84.49
19112;BME280;9688;51.906;8.376;2023-04-03T04:53:33;102285.50;;;1.50;84.46
19112;BME280;9688;51.906;8.376;2023-04-03T04:56:19;102291.56;;;1.50;84.39
19112;BME280;9688;51.906;8.376;2023-04-03T04:59:05;102292.38;;;1.48;84.61
19112;BME280;9688;51.906;8.376;2023-04-03T05:01:50;102297.63;;;1.49;84.74
19112;BME280;9688;51.906;8.376;2023-04-03T05:04:36;102299.41;;;1.50;84.82
19112;BME280;9688;51.906;8.376;2023-04-03T05:07:21;102296.78;;;1.50;84.69
19112;BME280;9688;51.906;8.376;2023-04-03T05:10:10;102293.31;;;1.50;84.73
19112;BME280;9688;51.906;8.376;2023-04-03T05:12:57;102306.34;;;1.50;84.89
19112;BME280;9688;51.906;8.376;2023-04-03T05:15:43;102308.03;;;1.49;84.85
19112;BME280;9688;51.906;8.376;2023-04-03T05:18:29;102310.81;;;1.55;85.13
19112;BME280;9688;51.906;8.376;2023-04-03T05:21:14;102310.84;;;1.57;84.82
19112;BME280;9688;51.906;8.376;2023-04-03T05:24:02;102310.03;;;1.58;84.85
19112;BME280;9688;51.906;8.376;2023-04-03T05:26:49;102310.03;;;1.58;84.89
19112;BME280;9688;51.906;8.376;2023-04-03T05:29:35;102313.66;;;1.65;85.14
19112;BME280;9688;51.906;8.376;2023-04-03T05:32:20;102317.53;;;1.81;84.50
19112;BME280;9688;51.906;8.376;2023-04-03T05:35:07;102322.91;;;1.87;85.14
19112;BME280;9688;51.906;8.376;2023-04-03T05:37:53;102322.13;;;1.91;84.47
19112;BME280;9688;51.906;8.376;2023-04-03T05:40:40;102324.78;;;1.92;84.19
19112;BME280;9688;51.906;8.376;2023-04-03T05:43:29;102325.78;;;1.97;84.25
19112;BME280;9688;51.906;8.376;2023-04-03T05:46:17;102332.81;;;2.01;83.94
19112;BME280;9688;51.906;8.376;2023-04-03T05:49:03;102339.03;;;2.07;84.10
19112;BME280;9688;51.906;8.376;2023-04-03T05:51:49;102342.50;;;2.06;84.08
19112;BME280;9688;51.906;8.376;2023-04-03T05:54:36;102339.16;;;2.11;84.28
19112;BME280;9688;51.906;8.376;2023-04-03T05:57:21;102341.03;;;2.18;83.91
19112;BME280;9688;51.906;8.376;2023-04-03T06:00:13;102345.59;;;2.27;83.58
19112;BME280;9688;51.906;8.376;2023-04-03T06:03:00;102353.91;;;2.47;84.20
19112;BME280;9688;51.906;8.376;2023-04-03T06:05:46;102355.19;;;2.66;84.07
19112;BME280;9688;51.906;8.376;2023-04-03T06:08:31;102357.44;;;2.90;83.67
19112;BME280;9688;51.906;8.376;2023-04-03T06:11:17;102354.72;;;3.26;83.78
19112;BME280;9688;51.906;8.376;2023-04-03T06:14:03;102363.47;;;3.75;82.69
19112;BME280;9688;51.906;8.376;2023-04-03T06:16:50;102363.09;;;4.62;81.52
19112;BME280;9688;51.906;8.376;2023-04-03T06:19:36;102358.03;;;5.46;79.46
19112;BME280;9688;51.906;8.376;2023-04-03T06:22:22;102360.31;;;5.94;77.67
19112;BME280;9688;51.906;8.376;2023-04-03T06:25:09;102363.81;;;5.95;77.78
19112;BME280;9688;51.906;8.376;2023-04-03T06:27:55;102368.00;;;5.77;78.23
19112;BME280;9688;51.906;8.376;2023-04-03T06:30:42;102365.16;;;5.54;77.58
19112;BME280;9688;51.906;8.376;2023-04-03T06:33:29;102364.84;;;5.28;77.06
19112;BME280;9688;51.906;8.376;2023-04-03T06:36:17;102375.84;;;5.01;77.71
19112;BME280;9688;51.906;8.376;2023-04-03T06:39:05;102374.06;;;4.97;77.16
19112;BME280;9688;51.906;8.376;2023-04-03T06:41:54;102376.03;;;5.15;76.46
19112;BME280;9688;51.906;8.376;2023-04-03T06:44:39;102366.63;;;5.29;76.14
19112;BME280;9688;51.906;8.376;2023-04-03T06:47:26;102368.44;;;5.35;74.62
19112;BME280;9688;51.906;8.376;2023-04-03T06:50:17;102370.06;;;5.25;74.95
19112;BME280;9688;51.906;8.376;2023-04-03T06:53:06;102376.97;;;5.20;73.97
19112;BME280;9688;51.906;8.376;2023-04-03T06:55:53;102382.22;;;5.19;73.83
19112;BME280;9688;51.906;8.376;2023-04-03T06:58:38;102379.72;;;5.29;73.48
19112;BME280;9688;51.906;8.376;2023-04-03T07:01:26;102384.22;;;5.41;73.61
19112;BME280;9688;51.906;8.376;2023-04-03T07:04:14;102394.06;;;5.62;72.70
19112;BME280;9688;51.906;8.376;2023-04-03T07:07:01;102389.94;;;5.87;71.80
19112;BME280;9688;51.906;8.376;2023-04-03T07:09:47;102396.09;;;5.89;71.17
19112;BME280;9688;51.906;8.376;2023-04-03T07:12:33;102398.91;;;6.05;70.22
19112;BME280;9688;51.906;8.376;2023-04-03T07:15:21;102401.47;;;6.00;70.65
19112;BME280;9688;51.906;8.376;2023-04-03T07:18:13;102416.31;;;5.96;70.05
19112;BME280;9688;51.906;8.376;2023-04-03T07:21:01;102403.97;;;5.89;70.04
19112;BME280;9688;51.906;8.376;2023-04-03T07:23:49;102411.94;;;5.97;69.83
19112;BME280;9688;51.906;8.376;2023-04-03T07:26:35;102418.19;;;6.08;68.96
19112;BME280;9688;51.906;8.376;2023-04-03T07:29:21;102420.06;;;6.26;68.03
19112;BME280;9688;51.906;8.376;2023-04-03T07:32:07;102424.44;;;6.25;67.21
19112;BME280;9688;51.906;8.376;2023-04-03T07:34:55;102423.53;;;6.19;67.25
19112;BME280;9688;51.906;8.376;2023-04-03T07:37:42;102443.66;;;6.20;67.06
19112;BME280;9688;51.906;8.376;2023-04-03T07:40:30;102440.19;;;6.22;67.17
19112;BME280;9688;51.906;8.376;2023-04-03T07:43:18;102433.44;;;6.55;66.61
19112;BME280;9688;51.906;8.376;2023-04-03T07:46:05;102429.31;;;6.92;65.00
19112;BME280;9688;51.906;8.376;2023-04-03T07:48:52;102429.50;;;7.34;64.19
19112;BME280;9688;51.906;8.376;2023-04-03T07:51:38;102434.00;;;7.61;63.05
19112;BME280;9688;51.906;8.376;2023-04-03T07:54:24;102434.88;;;7.58;62.04
19112;BME280;9688;51.906;8.376;2023-04-03T07:57:15;102439.25;;;7.56;61.25
19112;BME280;9688;51.906;8.376;2023-04-03T08:00:07;102441.06;;;7.62;60.81
19112;BME280;9688;51.906;8.376;2023-04-03T08:02:53;102434.94;;;7.71;60.37
19112;BME280;9688;51.906;8.376;2023-04-03T08:05:41;102433.16;;;7.68;59.79
19112;BME280;9688;51.906;8.376;2023-04-03T08:08:26;102439.28;;;7.63;59.62
19112;BME280;9688;51.906;8.376;2023-04-03T08:11:14;102436.69;;;7.72;59.05
19112;BME280;9688;51.906;8.376;2023-04-03T08:14:01;102441.09;;;7.85;58.60
19112;BME280;9688;51.906;8.376;2023-04-03T08:16:48;102448.13;;;7.89;57.78
19112;BME280;9688;51.906;8.376;2023-04-03T08:19:34;102436.69;;;7.84;57.77
19112;BME280;9688;51.906;8.376;2023-04-03T08:22:20;102431.47;;;7.93;57.18
19112;BME280;9688;51.906;8.376;2023-04-03T08:25:07;102445.50;;;8.00;55.93
19112;BME280;9688;51.906;8.376;2023-04-03T08:27:53;102439.34;;;7.98;55.77
19112;BME280;9688;51.906;8.376;2023-04-03T08:30:41;102440.25;;;7.95;54.26
19112;BME280;9688;51.906;8.376;2023-04-03T08:33:28;102427.06;;;7.89;54.46
19112;BME280;9688;51.906;8.376;2023-04-03T08:36:17;102431.44;;;7.82;53.92
19112;BME280;9688;51.906;8.376;2023-04-03T08:39:04;102435.81;;;7.80;53.64
19112;BME280;9688;51.906;8.376;2023-04-03T08:41:50;102442.84;;;7.77;53.17
19112;BME280;9688;51.906;8.376;2023-04-03T08:44:39;102436.69;;;7.75;52.94
19112;BME280;9688;51.906;8.376;2023-04-03T08:47:38;102427.91;;;7.80;52.72
19112;BME280;9688;51.906;8.376;2023-04-03T08:50:28;102444.63;;;7.87;52.56
19112;BME280;9688;51.906;8.376;2023-04-03T08:53:18;102438.44;;;7.87;52.02
19112;BME280;9688;51.906;8.376;2023-04-03T08:56:09;102441.09;;;7.82;52.21
19112;BME280;9688;51.906;8.376;2023-04-03T08:58:58;102442.81;;;7.68;51.73
19112;BME280;9688;51.906;8.376;2023-04-03T09:01:45;102448.91;;;7.56;51.92
19112;BME280;9688;51.906;8.376;2023-04-03T09:04:32;102437.47;;;7.49;51.43
19112;BME280;9688;51.906;8.376;2023-04-03T09:07:23;102441.88;;;7.52;51.81
19112;BME280;9688;51.906;8.376;2023-04-03T09:10:15;102443.63;;;7.50;52.50
19112;BME280;9688;51.906;8.376;2023-04-03T09:13:09;102434.88;;;7.57;52.65
19112;BME280;9688;51.906;8.376;2023-04-03T09:16:02;102438.41;;;7.62;52.70
19112;BME280;9688;51.906;8.376;2023-04-03T09:18:54;102451.59;;;7.68;53.12
19112;BME280;9688;51.906;8.376;2023-04-03T09:21:45;102442.78;;;7.57;53.03
19112;BME280;9688;51.906;8.376;2023-04-03T09:24:32;102447.13;;;7.46;53.26
19112;BME280;9688;51.906;8.376;2023-04-03T09:27:19;102430.44;;;7.47;53.47
19112;BME280;9688;51.906;8.376;2023-04-03T09:30:15;102449.75;;;7.50;52.85
19112;BME280;9688;51.906;8.376;2023-04-03T09:33:02;102443.66;;;7.54;52.73
19112;BME280;9688;51.906;8.376;2023-04-03T09:35:52;102446.28;;;7.51;52.18
19112;BME280;9688;51.906;8.376;2023-04-03T09:38:42;102435.69;;;7.42;51.98
19112;BME280;9688;51.906;8.376;2023-04-03T09:41:28;102442.69;;;7.35;52.06
19112;BME280;9688;51.906;8.376;2023-04-03T09:44:22;102426.03;;;7.32;51.73
19112;BME280;9688;51.906;8.376;2023-04-03T09:47:18;102447.00;;;7.23;51.88
19112;BME280;9688;51.906;8.376;2023-04-03T09:50:21;102425.09;;;7.22;51.40
19112;BME280;9688;51.906;8.376;2023-04-03T09:53:26;102433.88;;;7.24;51.66
19112;BME280;9688;51.906;8.376;2023-04-03T09:56:22;102432.16;;;7.32;51.72
19112;BME280;9688;51.906;8.376;2023-04-03T09:59:14;102422.53;;;7.41;51.75
19112;BME280;9688;51.906;8.376;2023-04-03T10:02:21;102427.00;;;7.57;51.56
19112;BME280;9688;51.906;8.376;2023-04-03T10:05:27;102421.75;;;7.72;51.28
19112;BME280;9688;51.906;8.376;2023-04-03T10:08:21;102422.66;;;7.79;51.05
19112;BME280;9688;51.906;8.376;2023-04-03T10:11:13;102423.53;;;7.82;51.65
19112;BME280;9688;51.906;8.376;2023-04-03T10:14:02;102410.38;;;7.89;51.17
19112;BME280;9688;51.906;8.376;2023-04-03T10:16:54;102410.38;;;7.92;51.13
19112;BME280;9688;51.906;8.376;2023-04-03T10:19:49;102412.16;;;7.94;50.95
19112;BME280;9688;51.906;8.376;2023-04-03T10:22:50;102413.91;;;7.95;51.01
19112;BME280;9688;51.906;8.376;2023-04-03T10:25:46;102414.78;;;7.97;50.93
19112;BME280;9688;51.906;8.376;2023-04-03T10:28:40;102400.72;;;8.00;51.03
19112;BME280;9688;51.906;8.376;2023-04-03T10:31:38;102411.28;;;8.08;50.84
19112;BME280;9688;51.906;8.376;2023-04-03T10:34:31;102406.88;;;8.05;50.71
19112;BME280;9688;51.906;8.376;2023-04-03T10:37:26;102406.88;;;8.05;50.58
19112;BME280;9688;51.906;8.376;2023-04-03T10:40:24;102406.88;;;8.11;50.95
19112;BME280;9688;51.906;8.376;2023-04-03T10:43:23;102396.34;;;8.08;50.73
19112;BME280;9688;51.906;8.376;2023-04-03T10:46:16;102395.47;;;8.03;50.58
19112;BME280;9688;51.906;8.376;2023-04-03T10:49:21;102402.50;;;8.10;50.06
19112;BME280;9688;51.906;8.376;2023-04-03T10:52:21;102406.00;;;8.14;50.17
19112;BME280;9688;51.906;8.376;2023-04-03T10:55:21;102398.97;;;8.17;50.10
19112;BME280;9688;51.906;8.376;2023-04-03T10:58:18;102389.31;;;8.25;50.00
19112;BME280;9688;51.906;8.376;2023-04-03T11:01:14;102391.06;;;8.31;49.71
19112;BME280;9688;51.906;8.376;2023-04-03T11:04:05;102381.47;;;8.41;50.27
19112;BME280;9688;51.906;8.376;2023-04-03T11:07:01;102380.56;;;8.54;49.98
19112;BME280;9688;51.906;8.376;2023-04-03T11:09:50;102383.19;;;8.68;49.23
19112;BME280;9688;51.906;8.376;2023-04-03T11:12:43;102397.25;;;8.59;48.60
19112;BME280;9688;51.906;8.376;2023-04-03T11:15:31;102380.56;;;8.46;49.03
19112;BME280;9688;51.906;8.376;2023-04-03T11:18:22;102384.06;;;8.53;48.72
19112;BME280;9688;51.906;8.376;2023-04-03T11:21:17;102383.22;;;8.48;48.48
19112;BME280;9688;51.906;8.376;2023-04-03T11:24:15;102375.28;;;8.34;48.46
19112;BME280;9688;51.906;8.376;2023-04-03T11:27:04;102376.16;;;8.42;48.68
19112;BME280;9688;51.906;8.376;2023-04-03T11:29:52;102376.13;;;8.70;48.57
19112;BME280;9688;51.906;8.376;2023-04-03T11:32:52;102382.25;;;8.78;48.38
19112;BME280;9688;51.906;8.376;2023-04-03T11:35:43;102365.53;;;8.85;48.37
19112;BME280;9688;51.906;8.376;2023-04-03T11:38:35;102364.56;;;9.08;47.28
19112;BME280;9688;51.906;8.376;2023-04-03T11:41:29;102356.63;;;9.19;46.90
19112;BME280;9688;51.906;8.376;2023-04-03T11:44:30;102352.06;;;9.47;46.71
19112;BME280;9688;51.906;8.376;2023-04-03T11:47:45;102354.56;;;9.71;47.58
19112;BME280;9688;51.906;8.376;2023-04-03T11:50:39;102355.34;;;9.84;46.75
19112;BME280;9688;51.906;8.376;2023-04-03T11:53:35;102351.00;;;9.78;46.59
19112;BME280;9688;51.906;8.376;2023-04-03T11:56:31;102348.56;;;9.45;47.72
19112;BME280;9688;51.906;8.376;2023-04-03T11:59:24;102352.22;;;9.21;47.59
19112;BME280;9688;51.906;8.376;2023-04-03T12:02:34;102345.22;;;9.12;48.06
19112;BME280;9688;51.906;8.376;2023-04-03T12:05:27;102329.41;;;9.10;47.76
19112;BME280;9688;51.906;8.376;2023-04-03T12:08:25;102325.88;;;9.14;47.76
19112;BME280;9688;51.906;8.376;2023-04-03T12:11:23;102324.94;;;9.23;48.16
19112;BME280;9688;51.906;8.376;2023-04-03T12:14:15;102332.78;;;9.35;47.96
19112;BME280;9688;51.906;8.376;2023-04-03T12:17:01;102315.88;;;9.66;48.12
19112;BME280;9688;51.906;8.376;2023-04-03T12:19:48;102311.34;;;9.81;47.43
19112;BME280;9688;51.906;8.376;2023-04-03T12:22:35;102313.13;;;9.79;47.23
19112;BME280;9688;51.906;8.376;2023-04-03T12:25:48;102315.06;;;9.54;48.11
19112;BME280;9688;51.906;8.376;2023-04-03T12:28:38;102319.50;;;9.51;47.67
19112;BME280;9688;51.906;8.376;2023-04-03T12:31:40;102323.88;;;9.53;47.49
19112;BME280;9688;51.906;8.376;2023-04-03T12:34:56;102319.50;;;9.45;47.26
19112;BME280;9688;51.906;8.376;2023-04-03T12:38:01;102312.44;;;9.53;47.56
19112;BME280;9688;51.906;8.376;2023-04-03T12:41:11;102317.72;;;9.51;47.69
19112;BME280;9688;51.906;8.376;2023-04-03T12:44:26;102302.13;;;9.11;48.77
19112;BME280;9688;51.906;8.376;2023-04-03T12:47:33;102298.72;;;8.92;48.15
19112;BME280;9688;51.906;8.376;2023-04-03T12:50:29;102305.81;;;8.74;49.17
19112;BME280;9688;51.906;8.376;2023-04-03T12:53:19;102297.06;;;8.61;48.26
19112;BME280;9688;51.906;8.376;2023-04-03T12:56:25;102294.44;;;8.62;48.61
19112;BME280;9688;51.906;8.376;2023-04-03T12:59:19;102304.97;;;8.62;48.38
19112;BME280;9688;51.906;8.376;2023-04-03T13:02:18;102289.13;;;8.68;47.85
19112;BME280;9688;51.906;8.376;2023-04-03T13:05:08;102284.63;;;8.95;47.32
19112;BME280;9688;51.906;8.376;2023-04-03T13:08:01;102287.94;;;9.31;47.10
19112;BME280;9688;51.906;8.376;2023-04-03T13:10:52;102281.56;;;9.63;46.96
19112;BME280;9688;51.906;8.376;2023-04-03T13:13:39;102280.50;;;9.87;47.27
19112;BME280;9688;51.906;8.376;2023-04-03T13:16:25;102278.50;;;10.10;45.67
19112;BME280;9688;51.906;8.376;2023-04-03T13:19:16;102287.31;;;10.11;45.29
19112;BME280;9688;51.906;8.376;2023-04-03T13:22:06;102273.09;;;10.22;45.33
19112;BME280;9688;51.906;8.376;2023-04-03T13:24:55;102262.50;;;10.27;45.64
19112;BME280;9688;51.906;8.376;2023-04-03T13:27:44;102259.75;;;10.38;45.50
19112;BME280;9688;51.906;8.376;2023-04-03T13:30:32;102270.22;;;10.47;45.16
19112;BME280;9688;51.906;8.376;2023-04-03T13:33:20;102274.63;;;10.46;44.59
19112;BME280;9688;51.906;8.376;2023-04-03T13:36:10;102262.25;;;10.50;44.33
19112;BME280;9688;51.906;8.376;2023-04-03T13:39:05;102259.63;;;10.48;45.09
19112;BME280;9688;51.906;8.376;2023-04-03T13:41:52;102259.50;;;10.58;43.58
19112;BME280;9688;51.906;8.376;2023-04-03T13:44:38;102263.91;;;10.60;43.85
19112;BME280;9688;51.906;8.376;2023-04-03T13:47:25;102260.25;;;10.70;44.17
19112;BME280;9688;51.906;8.376;2023-04-03T13:50:18;102252.44;;;10.60;43.75
19112;BME280;9688;51.906;8.376;2023-04-03T13:53:11;102247.38;;;10.41;44.52
19112;BME280;9688;51.906;8.376;2023-04-03T13:56:08;102243.94;;;10.35;45.40
19112;BME280;9688;51.906;8.376;2023-04-03T13:59:01;102244.72;;;10.41;44.94
19112;BME280;9688;51.906;8.376;2023-04-03T14:01:53;102235.75;;;10.55;44.86
19112;BME280;9688;51.906;8.376;2023-04-03T14:04:48;102234.66;;;10.73;44.45
19112;BME280;9688;51.906;8.376;2023-04-03T14:07:36;102228.56;;;10.66;44.30
19112;BME280;9688;51.906;8.376;2023-04-03T14:10:24;102224.41;;;10.46;44.03
19112;BME280;9688;51.906;8.376;2023-04-03T14:13:14;102221.06;;;10.31;44.94
19112;BME280;9688;51.906;8.376;2023-04-03T14:16:03;102230.94;;;10.09;45.86
19112;BME280;9688;51.906;8.376;2023-04-03T14:18:50;102226.75;;;9.89;45.31
19112;BME280;9688;51.906;8.376;2023-04-03T14:21:37;102220.69;;;9.79;45.13
19112;BME280;9688;51.906;8.376;2023-04-03T14:24:23;102218.97;;;9.74;45.45
19112;BME280;9688;51.906;8.376;2023-04-03T14:27:16;102225.06;;;9.80;44.31
19112;BME280;9688;51.906;8.376;2023-04-03T14:30:22;102211.88;;;9.77;44.78
19112;BME280;9688;51.906;8.376;2023-04-03T14:33:11;102216.44;;;9.63;45.50
19112;BME280;9688;51.906;8.376;2023-04-03T14:35:57;102220.13;;;9.41;46.14
19112;BME280;9688;51.906;8.376;2023-04-03T14:38:44;102203.34;;;9.51;45.08
19112;BME280;9688;51.906;8.376;2023-04-03T14:41:30;102191.81;;;9.59;45.15
19112;BME280;9688;51.906;8.376;2023-04-03T14:44:16;102194.63;;;9.43;44.97
19112;BME280;9688;51.906;8.376;2023-04-03T14:47:02;102192.03;;;9.35;45.95
19112;BME280;9688;51.906;8.376;2023-04-03T14:49:49;102186.81;;;9.27;46.72
19112;BME280;9688;51.906;8.376;2023-04-03T14:52:35;102184.19;;;9.24;46.68
19112;BME280;9688;51.906;8.376;2023-04-03T14:55:24;102185.00;;;9.34;45.58
19112;BME280;9688;51.906;8.376;2023-04-03T14:58:14;102188.47;;;9.39;45.53
19112;BME280;9688;51.906;8.376;2023-04-03T15:01:00;102177.00;;;9.43;45.57
19112;BME280;9688;51.906;8.376;2023-04-03T15:03:47;102183.97;;;9.50;45.96
19112;BME280;9688;51.906;8.376;2023-04-03T15:06:33;102183.09;;;9.51;45.58
19112;BME280;9688;51.906;8.376;2023-04-03T15:09:21;102183.94;;;9.56;44.79